sensor_id;sensor_type;location;lat;lon;timestamp;P1;durP1;ratioP1;P2;durP2;ratioP2
6249;SDS011;3158;52.148;11.568;2024-02-26T00:00:44;9.32;;;4.60;;
6249;SDS011;3158;52.148;11.568;2024-02-26T00:05:46;5.18;;;4.35;;
6249;SDS011;3158;52.148;11.568;2024-02-26T00:10:46;5.05;;;3.45;;
6249;SDS011;3158;52.148;11.568;2024-02-26T00:15:46;4.50;;;4.10;;
6249;SDS011;3158;52.148;11.568;2024-02-26T00:20:47;3.05;;;2.72;;
6249;SDS011;3158;52.148;11.568;2024-02-26T00:25:47;5.03;;;3.20;;
6249;SDS011;3158;52.148;11.568;2024-02-26T00:30:47;3.80;;;3.47;;
6249;SDS011;3158;52.148;11.568;2024-02-26T00:35:48;8.93;;;4.20;;
6249;SDS011;3158;52.148;11.568;2024-02-26T00:40:48;5.85;;;3.00;;
6249;SDS011;3158;52.148;11.568;2024-02-26T00:45:49;4.60;;;3.25;;
6249;SDS011;3158;52.148;11.568;2024-02-26T00:50:49;6.22;;;3.22;;
6249;SDS011;3158;52.148;11.568;2024-02-26T00:55:49;6.75;;;4.13;;
6249;SDS011;3158;52.148;11.568;2024-02-26T01:00:49;5.78;;;3.00;;
6249;SDS011;3158;52.148;11.568;2024-02-26T01:05:50;3.15;;;2.38;;
6249;SDS011;3158;52.148;11.568;2024-02-26T01:10:50;2.40;;;2.15;;
6249;SDS011;3158;52.148;11.568;2024-02-26T01:15:50;3.70;;;2.80;;
6249;SDS011;3158;52.148;11.568;2024-02-26T01:20:51;2.67;;;2.50;;
6249;SDS011;3158;52.148;11.568;2024-02-26T01:25:51;3.70;;;3.00;;
6249;SDS011;3158;52.148;11.568;2024-02-26T01:30:51;3.67;;;2.78;;
6249;SDS011;3158;52.148;11.568;2024-02-26T01:35:52;3.83;;;3.25;;
6249;SDS011;3158;52.148;11.568;2024-02-26T01:40:53;2.92;;;2.45;;
6249;SDS011;3158;52.148;11.568;2024-02-26T01:45:53;2.38;;;2.20;;
6249;SDS011;3158;52.148;11.568;2024-02-26T01:50:54;4.82;;;3.13;;
6249;SDS011;3158;52.148;11.568;2024-02-26T01:55:54;2.53;;;2.33;;
6249;SDS011;3158;52.148;11.568;2024-02-26T02:00:54;2.58;;;2.35;;
6249;SDS011;3158;52.148;11.568;2024-02-26T02:05:55;4.10;;;2.17;;
6249;SDS011;3158;52.148;11.568;2024-02-26T02:10:55;2.40;;;2.30;;
6249;SDS011;3158;52.148;11.568;2024-02-26T02:15:56;1.55;;;1.45;;
6249;SDS011;3158;52.148;11.568;2024-02-26T02:20:56;1.98;;;1.52;;
6249;SDS011;3158;52.148;11.568;2024-02-26T02:25:59;1.88;;;1.77;;
6249;SDS011;3158;52.148;11.568;2024-02-26T02:30:59;1.85;;;1.85;;
6249;SDS011;3158;52.148;11.568;2024-02-26T02:36:00;1.67;;;1.58;;
6249;SDS011;3158;52.148;11.568;2024-02-26T02:41:01;2.15;;;2.08;;
6249;SDS011;3158;52.148;11.568;2024-02-26T02:46:01;2.03;;;1.92;;
6249;SDS011;3158;52.148;11.568;2024-02-26T02:51:02;2.35;;;2.25;;
6249;SDS011;3158;52.148;11.568;2024-02-26T02:56:02;3.72;;;2.30;;
6249;SDS011;3158;52.148;11.568;2024-02-26T03:01:03;2.85;;;2.13;;
6249;SDS011;3158;52.148;11.568;2024-02-26T03:06:03;4.05;;;1.90;;
6249;SDS011;3158;52.148;11.568;2024-02-26T03:11:04;2.17;;;2.08;;
6249;SDS011;3158;52.148;11.568;2024-02-26T03:16:04;1.85;;;1.75;;
6249;SDS011;3158;52.148;11.568;2024-02-26T03:21:05;1.98;;;1.88;;
6249;SDS011;3158;52.148;11.568;2024-02-26T03:26:06;2.22;;;2.13;;
6249;SDS011;3158;52.148;11.568;2024-02-26T03:31:06;1.27;;;1.27;;
6249;SDS011;3158;52.148;11.568;2024-02-26T03:36:06;1.70;;;1.70;;
6249;SDS011;3158;52.148;11.568;2024-02-26T03:41:07;2.08;;;1.98;;
6249;SDS011;3158;52.148;11.568;2024-02-26T03:46:08;2.13;;;2.03;;
6249;SDS011;3158;52.148;11.568;2024-02-26T03:51:11;2.47;;;2.38;;
6249;SDS011;3158;52.148;11.568;2024-02-26T03:56:11;2.10;;;1.92;;
6249;SDS011;3158;52.148;11.568;2024-02-26T04:01:13;1.88;;;1.77;;
6249;SDS011;3158;52.148;11.568;2024-02-26T04:06:13;1.70;;;1.63;;
6249;SDS011;3158;52.148;11.568;2024-02-26T04:11:14;1.52;;;1.52;;
6249;SDS011;3158;52.148;11.568;2024-02-26T04:16:17;2.15;;;1.73;;
6249;SDS011;3158;52.148;11.568;2024-02-26T04:21:18;1.98;;;1.77;;
6249;SDS011;3158;52.148;11.568;2024-02-26T04:26:18;2.78;;;1.80;;
6249;SDS011;3158;52.148;11.568;2024-02-26T04:31:18;1.55;;;1.50;;
6249;SDS011;3158;52.148;11.568;2024-02-26T04:36:19;1.75;;;1.65;;
6249;SDS011;3158;52.148;11.568;2024-02-26T04:41:19;1.85;;;1.80;;
6249;SDS011;3158;52.148;11.568;2024-02-26T04:46:19;1.70;;;1.60;;
6249;SDS011;3158;52.148;11.568;2024-02-26T04:51:21;2.00;;;1.90;;
6249;SDS011;3158;52.148;11.568;2024-02-26T04:56:22;1.50;;;1.42;;
6249;SDS011;3158;52.148;11.568;2024-02-26T05:01:22;1.92;;;1.83;;
6249;SDS011;3158;52.148;11.568;2024-02-26T05:06:22;1.95;;;1.83;;
6249;SDS011;3158;52.148;11.568;2024-02-26T05:11:23;1.67;;;1.58;;
6249;SDS011;3158;52.148;11.568;2024-02-26T05:16:23;1.80;;;1.70;;
6249;SDS011;3158;52.148;11.568;2024-02-26T05:21:24;3.33;;;2.97;;
6249;SDS011;3158;52.148;11.568;2024-02-26T05:26:24;2.42;;;2.03;;
6249;SDS011;3158;52.148;11.568;2024-02-26T05:31:25;4.03;;;1.60;;
6249;SDS011;3158;52.148;11.568;2024-02-26T05:36:26;2.15;;;2.00;;
6249;SDS011;3158;52.148;11.568;2024-02-26T05:41:28;1.45;;;1.40;;
6249;SDS011;3158;52.148;11.568;2024-02-26T05:46:28;1.92;;;1.83;;
6249;SDS011;3158;52.148;11.568;2024-02-26T05:51:29;1.80;;;1.45;;
6249;SDS011;3158;52.148;11.568;2024-02-26T05:56:29;1.98;;;1.85;;
6249;SDS011;3158;52.148;11.568;2024-02-26T06:01:30;1.73;;;1.63;;
6249;SDS011;3158;52.148;11.568;2024-02-26T06:06:30;1.85;;;1.75;;
6249;SDS011;3158;52.148;11.568;2024-02-26T06:11:30;1.38;;;1.27;;
6249;SDS011;3158;52.148;11.568;2024-02-26T06:16:31;1.77;;;1.73;;
6249;SDS011;3158;52.148;11.568;2024-02-26T06:21:31;2.10;;;2.00;;
6249;SDS011;3158;52.148;11.568;2024-02-26T06:26:31;1.83;;;1.48;;
6249;SDS011;3158;52.148;11.568;2024-02-26T06:31:33;2.63;;;1.98;;
6249;SDS011;3158;52.148;11.568;2024-02-26T06:36:34;3.20;;;2.20;;
6249;SDS011;3158;52.148;11.568;2024-02-26T06:41:34;3.28;;;2.45;;
6249;SDS011;3158;52.148;11.568;2024-02-26T06:46:36;5.68;;;1.95;;
6249;SDS011;3158;52.148;11.568;2024-02-26T06:51:36;2.35;;;2.15;;
6249;SDS011;3158;52.148;11.568;2024-02-26T06:56:37;2.85;;;2.17;;
6249;SDS011;3158;52.148;11.568;2024-02-26T07:01:37;2.28;;;2.15;;
6249;SDS011;3158;52.148;11.568;2024-02-26T07:06:37;2.95;;;2.10;;
6249;SDS011;3158;52.148;11.568;2024-02-26T07:11:37;3.42;;;2.83;;
6249;SDS011;3158;52.148;11.568;2024-02-26T07:16:39;2.63;;;2.42;;
6249;SDS011;3158;52.148;11.568;2024-02-26T07:21:39;2.88;;;1.83;;
6249;SDS011;3158;52.148;11.568;2024-02-26T07:26:40;2.95;;;2.47;;
6249;SDS011;3158;52.148;11.568;2024-02-26T07:31:41;2.90;;;2.70;;
6249;SDS011;3158;52.148;11.568;2024-02-26T07:36:41;2.30;;;2.20;;
6249;SDS011;3158;52.148;11.568;2024-02-26T07:41:41;2.42;;;2.33;;
6249;SDS011;3158;52.148;11.568;2024-02-26T07:46:41;2.65;;;2.55;;
6249;SDS011;3158;52.148;11.568;2024-02-26T07:51:42;3.25;;;2.92;;
6249;SDS011;3158;52.148;11.568;2024-02-26T07:56:42;3.28;;;2.70;;
6249;SDS011;3158;52.148;11.568;2024-02-26T08:01:42;3.47;;;3.22;;
6249;SDS011;3158;52.148;11.568;2024-02-26T08:06:43;3.30;;;3.05;;
6249;SDS011;3158;52.148;11.568;2024-02-26T08:11:43;3.55;;;3.17;;
6249;SDS011;3158;52.148;11.568;2024-02-26T08:16:43;3.58;;;3.38;;
6249;SDS011;3158;52.148;11.568;2024-02-26T08:21:43;3.72;;;3.53;;
6249;SDS011;3158;52.148;11.568;2024-02-26T08:26:44;3.70;;;3.40;;
6249;SDS011;3158;52.148;11.568;2024-02-26T08:31:44;3.63;;;3.33;;
6249;SDS011;3158;52.148;11.568;2024-02-26T08:36:45;3.80;;;3.50;;
6249;SDS011;3158;52.148;11.568;2024-02-26T08:41:45;4.18;;;3.78;;
6249;SDS011;3158;52.148;11.568;2024-02-26T08:46:45;4.43;;;3.60;;
6249;SDS011;3158;52.148;11.568;2024-02-26T08:51:46;4.95;;;4.50;;
6249;SDS011;3158;52.148;11.568;2024-02-26T08:56:46;4.57;;;3.42;;
6249;SDS011;3158;52.148;11.568;2024-02-26T09:01:46;4.80;;;3.53;;
6249;SDS011;3158;52.148;11.568;2024-02-26T09:06:47;3.85;;;3.55;;
6249;SDS011;3158;52.148;11.568;2024-02-26T09:11:47;7.47;;;4.43;;
6249;SDS011;3158;52.148;11.568;2024-02-26T09:16:47;4.68;;;4.30;;
6249;SDS011;3158;52.148;11.568;2024-02-26T09:21:51;4.22;;;3.97;;
6249;SDS011;3158;52.148;11.568;2024-02-26T09:26:51;6.38;;;4.97;;
6249;SDS011;3158;52.148;11.568;2024-02-26T09:31:52;5.17;;;4.67;;
6249;SDS011;3158;52.148;11.568;2024-02-26T09:36:52;9.43;;;4.75;;
6249;SDS011;3158;52.148;11.568;2024-02-26T09:41:52;4.97;;;4.38;;
6249;SDS011;3158;52.148;11.568;2024-02-26T09:46:52;5.00;;;4.47;;
6249;SDS011;3158;52.148;11.568;2024-02-26T09:51:53;4.90;;;4.38;;
6249;SDS011;3158;52.148;11.568;2024-02-26T09:56:54;5.47;;;4.72;;
6249;SDS011;3158;52.148;11.568;2024-02-26T10:01:55;6.45;;;4.18;;
6249;SDS011;3158;52.148;11.568;2024-02-26T10:06:57;5.30;;;4.60;;
6249;SDS011;3158;52.148;11.568;2024-02-26T10:12:00;7.40;;;5.43;;
6249;SDS011;3158;52.148;11.568;2024-02-26T10:17:00;6.43;;;5.40;;
6249;SDS011;3158;52.148;11.568;2024-02-26T10:22:01;6.78;;;5.88;;
6249;SDS011;3158;52.148;11.568;2024-02-26T10:27:01;5.10;;;4.60;;
6249;SDS011;3158;52.148;11.568;2024-02-26T10:32:02;5.88;;;4.70;;
6249;SDS011;3158;52.148;11.568;2024-02-26T10:37:02;7.20;;;5.72;;
6249;SDS011;3158;52.148;11.568;2024-02-26T10:42:03;5.57;;;4.78;;
6249;SDS011;3158;52.148;11.568;2024-02-26T10:47:09;5.30;;;4.80;;
6249;SDS011;3158;52.148;11.568;2024-02-26T10:52:09;6.27;;;4.73;;
6249;SDS011;3158;52.148;11.568;2024-02-26T10:57:10;7.07;;;5.82;;
6249;SDS011;3158;52.148;11.568;2024-02-26T11:02:11;7.55;;;5.55;;
6249;SDS011;3158;52.148;11.568;2024-02-26T11:07:12;6.30;;;5.63;;
6249;SDS011;3158;52.148;11.568;2024-02-26T11:12:12;7.28;;;5.20;;
6249;SDS011;3158;52.148;11.568;2024-02-26T11:17:14;5.50;;;5.05;;
6249;SDS011;3158;52.148;11.568;2024-02-26T11:22:15;7.13;;;5.78;;
6249;SDS011;3158;52.148;11.568;2024-02-26T11:27:15;8.40;;;6.00;;
6249;SDS011;3158;52.148;11.568;2024-02-26T11:32:17;10.93;;;7.07;;
6249;SDS011;3158;52.148;11.568;2024-02-26T11:37:17;6.25;;;5.40;;
6249;SDS011;3158;52.148;11.568;2024-02-26T11:42:18;7.78;;;6.20;;
6249;SDS011;3158;52.148;11.568;2024-02-26T11:47:22;10.38;;;6.85;;
6249;SDS011;3158;52.148;11.568;2024-02-26T11:52:23;7.85;;;6.28;;
6249;SDS011;3158;52.148;11.568;2024-02-26T12:07:39;8.77;;;6.93;;
6249;SDS011;3158;52.148;11.568;2024-02-26T12:12:40;12.10;;;7.05;;
6249;SDS011;3158;52.148;11.568;2024-02-26T12:17:40;9.93;;;7.03;;
6249;SDS011;3158;52.148;11.568;2024-02-26T12:22:41;13.23;;;7.55;;
6249;SDS011;3158;52.148;11.568;2024-02-26T12:27:44;11.55;;;7.18;;
6249;SDS011;3158;52.148;11.568;2024-02-26T12:32:45;8.90;;;6.85;;
6249;SDS011;3158;52.148;11.568;2024-02-26T12:37:46;11.18;;;7.30;;
6249;SDS011;3158;52.148;11.568;2024-02-26T12:42:46;8.93;;;6.97;;
6249;SDS011;3158;52.148;11.568;2024-02-26T12:47:46;10.52;;;7.40;;
6249;SDS011;3158;52.148;11.568;2024-02-26T12:52:48;11.43;;;7.80;;
6249;SDS011;3158;52.148;11.568;2024-02-26T12:57:48;7.78;;;6.70;;
6249;SDS011;3158;52.148;11.568;2024-02-26T13:02:50;10.65;;;7.40;;
6249;SDS011;3158;52.148;11.568;2024-02-26T13:07:50;12.23;;;7.22;;
6249;SDS011;3158;52.148;11.568;2024-02-26T13:12:53;9.85;;;6.97;;
6249;SDS011;3158;52.148;11.568;2024-02-26T13:17:53;10.40;;;6.55;;
6249;SDS011;3158;52.148;11.568;2024-02-26T13:23:00;8.40;;;7.07;;
6249;SDS011;3158;52.148;11.568;2024-02-26T13:28:06;9.52;;;7.18;;
6249;SDS011;3158;52.148;11.568;2024-02-26T13:33:11;12.02;;;7.60;;
6249;SDS011;3158;52.148;11.568;2024-02-26T13:38:12;10.63;;;6.53;;
6249;SDS011;3158;52.148;11.568;2024-02-26T13:43:12;8.75;;;7.55;;
6249;SDS011;3158;52.148;11.568;2024-02-26T13:48:13;7.68;;;6.85;;
6249;SDS011;3158;52.148;11.568;2024-02-26T13:53:13;15.05;;;7.82;;
6249;SDS011;3158;52.148;11.568;2024-02-26T13:58:14;14.40;;;8.43;;
6249;SDS011;3158;52.148;11.568;2024-02-26T14:03:14;12.45;;;7.97;;
6249;SDS011;3158;52.148;11.568;2024-02-26T14:08:14;10.93;;;8.18;;
6249;SDS011;3158;52.148;11.568;2024-02-26T14:13:15;9.65;;;7.22;;
6249;SDS011;3158;52.148;11.568;2024-02-26T14:18:15;9.82;;;7.82;;
6249;SDS011;3158;52.148;11.568;2024-02-26T14:23:15;10.52;;;7.57;;
6249;SDS011;3158;52.148;11.568;2024-02-26T14:28:15;8.63;;;7.35;;
6249;SDS011;3158;52.148;11.568;2024-02-26T14:33:16;12.07;;;7.85;;
6249;SDS011;3158;52.148;11.568;2024-02-26T14:38:16;10.93;;;6.63;;
6249;SDS011;3158;52.148;11.568;2024-02-26T14:43:16;7.78;;;6.05;;
6249;SDS011;3158;52.148;11.568;2024-02-26T14:48:16;10.27;;;6.40;;
6249;SDS011;3158;52.148;11.568;2024-02-26T14:53:17;7.20;;;5.82;;
6249;SDS011;3158;52.148;11.568;2024-02-26T14:58:17;7.40;;;6.35;;
6249;SDS011;3158;52.148;11.568;2024-02-26T15:03:17;9.27;;;6.88;;
6249;SDS011;3158;52.148;11.568;2024-02-26T15:08:18;7.68;;;6.43;;
6249;SDS011;3158;52.148;11.568;2024-02-26T15:13:19;10.45;;;6.90;;
6249;SDS011;3158;52.148;11.568;2024-02-26T15:18:19;9.40;;;7.13;;
6249;SDS011;3158;52.148;11.568;2024-02-26T15:23:19;7.93;;;6.22;;
6249;SDS011;3158;52.148;11.568;2024-02-26T15:28:19;10.50;;;6.90;;
6249;SDS011;3158;52.148;11.568;2024-02-26T15:33:20;9.27;;;7.00;;
6249;SDS011;3158;52.148;11.568;2024-02-26T15:38:21;7.22;;;6.40;;
6249;SDS011;3158;52.148;11.568;2024-02-26T15:43:21;11.68;;;6.72;;
6249;SDS011;3158;52.148;11.568;2024-02-26T15:48:21;9.38;;;6.18;;
6249;SDS011;3158;52.148;11.568;2024-02-26T15:53:22;8.75;;;6.50;;
6249;SDS011;3158;52.148;11.568;2024-02-26T15:58:22;6.88;;;6.05;;
6249;SDS011;3158;52.148;11.568;2024-02-26T16:03:24;8.32;;;6.30;;
6249;SDS011;3158;52.148;11.568;2024-02-26T16:08:24;9.18;;;6.43;;
6249;SDS011;3158;52.148;11.568;2024-02-26T16:13:24;8.80;;;6.38;;
6249;SDS011;3158;52.148;11.568;2024-02-26T16:18:24;11.23;;;6.47;;
6249;SDS011;3158;52.148;11.568;2024-02-26T16:23:25;8.73;;;6.25;;
6249;SDS011;3158;52.148;11.568;2024-02-26T16:28:25;11.20;;;6.32;;
6249;SDS011;3158;52.148;11.568;2024-02-26T16:33:26;6.68;;;5.90;;
6249;SDS011;3158;52.148;11.568;2024-02-26T16:38:26;6.97;;;5.88;;
6249;SDS011;3158;52.148;11.568;2024-02-26T16:43:26;7.38;;;5.50;;
6249;SDS011;3158;52.148;11.568;2024-02-26T16:48:28;12.25;;;5.00;;
6249;SDS011;3158;52.148;11.568;2024-02-26T16:53:28;5.43;;;4.78;;
6249;SDS011;3158;52.148;11.568;2024-02-26T16:58:29;5.18;;;4.68;;
6249;SDS011;3158;52.148;11.568;2024-02-26T17:03:29;4.32;;;3.95;;
6249;SDS011;3158;52.148;11.568;2024-02-26T17:08:30;4.97;;;4.57;;
6249;SDS011;3158;52.148;11.568;2024-02-26T17:13:33;4.07;;;3.78;;
6249;SDS011;3158;52.148;11.568;2024-02-26T17:18:34;4.53;;;3.95;;
6249;SDS011;3158;52.148;11.568;2024-02-26T17:23:34;4.37;;;3.90;;
6249;SDS011;3158;52.148;11.568;2024-02-26T17:28:36;8.50;;;4.25;;
6249;SDS011;3158;52.148;11.568;2024-02-26T17:33:41;4.57;;;4.18;;
6249;SDS011;3158;52.148;11.568;2024-02-26T17:38:41;3.88;;;3.67;;
6249;SDS011;3158;52.148;11.568;2024-02-26T17:43:42;3.83;;;3.53;;
6249;SDS011;3158;52.148;11.568;2024-02-26T17:48:43;3.80;;;3.60;;
6249;SDS011;3158;52.148;11.568;2024-02-26T17:53:43;4.47;;;3.63;;
6249;SDS011;3158;52.148;11.568;2024-02-26T17:58:43;5.60;;;3.15;;
6249;SDS011;3158;52.148;11.568;2024-02-26T18:03:44;3.22;;;2.95;;
6249;SDS011;3158;52.148;11.568;2024-02-26T18:08:45;2.80;;;2.60;;
6249;SDS011;3158;52.148;11.568;2024-02-26T18:13:45;4.78;;;2.78;;
6249;SDS011;3158;52.148;11.568;2024-02-26T18:18:45;2.80;;;2.60;;
6249;SDS011;3158;52.148;11.568;2024-02-26T18:23:47;3.05;;;2.85;;
6249;SDS011;3158;52.148;11.568;2024-02-26T18:28:48;2.65;;;2.53;;
6249;SDS011;3158;52.148;11.568;2024-02-26T18:33:48;2.40;;;2.28;;
6249;SDS011;3158;52.148;11.568;2024-02-26T18:38:49;2.97;;;2.78;;
6249;SDS011;3158;52.148;11.568;2024-02-26T18:43:50;4.78;;;2.97;;
6249;SDS011;3158;52.148;11.568;2024-02-26T18:48:51;2.45;;;2.28;;
6249;SDS011;3158;52.148;11.568;2024-02-26T18:53:53;2.20;;;2.10;;
6249;SDS011;3158;52.148;11.568;2024-02-26T18:58:53;2.47;;;2.00;;
6249;SDS011;3158;52.148;11.568;2024-02-26T19:03:53;1.83;;;1.83;;
6249;SDS011;3158;52.148;11.568;2024-02-26T19:08:53;2.58;;;1.83;;
6249;SDS011;3158;52.148;11.568;2024-02-26T19:13:54;1.80;;;1.80;;
6249;SDS011;3158;52.148;11.568;2024-02-26T19:18:55;4.05;;;1.90;;
6249;SDS011;3158;52.148;11.568;2024-02-26T19:23:55;1.85;;;1.83;;
6249;SDS011;3158;52.148;11.568;2024-02-26T19:28:55;1.92;;;1.83;;
6249;SDS011;3158;52.148;11.568;2024-02-26T19:33:56;1.75;;;1.65;;
6249;SDS011;3158;52.148;11.568;2024-02-26T19:38:56;1.75;;;1.27;;
6249;SDS011;3158;52.148;11.568;2024-02-26T19:43:56;1.42;;;1.35;;
6249;SDS011;3158;52.148;11.568;2024-02-26T19:48:57;1.52;;;1.42;;
6249;SDS011;3158;52.148;11.568;2024-02-26T19:53:58;1.73;;;1.63;;
6249;SDS011;3158;52.148;11.568;2024-02-26T19:58:58;1.58;;;1.58;;
6249;SDS011;3158;52.148;11.568;2024-02-26T20:03:59;2.10;;;1.50;;
6249;SDS011;3158;52.148;11.568;2024-02-26T20:08:59;2.25;;;1.58;;
6249;SDS011;3158;52.148;11.568;2024-02-26T20:13:59;1.58;;;1.17;;
6249;SDS011;3158;52.148;11.568;2024-02-26T20:19:00;1.05;;;1.05;;
6249;SDS011;3158;52.148;11.568;2024-02-26T20:24:00;2.33;;;1.00;;
6249;SDS011;3158;52.148;11.568;2024-02-26T20:29:00;1.20;;;1.20;;
6249;SDS011;3158;52.148;11.568;2024-02-26T20:34:00;1.73;;;1.20;;
6249;SDS011;3158;52.148;11.568;2024-02-26T20:39:01;0.98;;;0.98;;
6249;SDS011;3158;52.148;11.568;2024-02-26T20:44:02;1.20;;;1.20;;
6249;SDS011;3158;52.148;11.568;2024-02-26T20:49:03;1.23;;;1.23;;
6249;SDS011;3158;52.148;11.568;2024-02-26T20:54:03;1.40;;;1.40;;
6249;SDS011;3158;52.148;11.568;2024-02-26T20:59:08;1.48;;;1.30;;
6249;SDS011;3158;52.148;11.568;2024-02-26T21:04:09;1.10;;;1.10;;
6249;SDS011;3158;52.148;11.568;2024-02-26T21:09:09;1.95;;;1.40;;
6249;SDS011;3158;52.148;11.568;2024-02-26T21:14:09;2.20;;;1.20;;
6249;SDS011;3158;52.148;11.568;2024-02-26T21:19:10;1.38;;;1.17;;
6249;SDS011;3158;52.148;11.568;2024-02-26T21:24:10;1.05;;;0.95;;
6249;SDS011;3158;52.148;11.568;2024-02-26T21:29:10;1.02;;;1.02;;
6249;SDS011;3158;52.148;11.568;2024-02-26T21:34:10;1.77;;;1.23;;
6249;SDS011;3158;52.148;11.568;2024-02-26T21:39:11;0.90;;;0.90;;
6249;SDS011;3158;52.148;11.568;2024-02-26T21:44:11;1.00;;;1.00;;
6249;SDS011;3158;52.148;11.568;2024-02-26T21:49:12;1.67;;;1.20;;
6249;SDS011;3158;52.148;11.568;2024-02-26T21:54:12;1.95;;;1.45;;
6249;SDS011;3158;52.148;11.568;2024-02-26T21:59:13;0.95;;;0.95;;
6249;SDS011;3158;52.148;11.568;2024-02-26T22:04:14;1.10;;;1.00;;
6249;SDS011;3158;52.148;11.568;2024-02-26T22:09:14;1.17;;;1.17;;
6249;SDS011;3158;52.148;11.568;2024-02-26T22:14:14;1.63;;;1.10;;
6249;SDS011;3158;52.148;11.568;2024-02-26T22:19:15;0.80;;;0.80;;
6249;SDS011;3158;52.148;11.568;2024-02-26T22:24:18;1.73;;;0.98;;
6249;SDS011;3158;52.148;11.568;2024-02-26T22:29:18;1.10;;;1.10;;
6249;SDS011;3158;52.148;11.568;2024-02-26T22:34:18;0.98;;;0.73;;
6249;SDS011;3158;52.148;11.568;2024-02-26T22:39:18;1.13;;;1.13;;
6249;SDS011;3158;52.148;11.568;2024-02-26T22:44:19;0.90;;;0.90;;
6249;SDS011;3158;52.148;11.568;2024-02-26T22:49:19;1.00;;;1.00;;
6249;SDS011;3158;52.148;11.568;2024-02-26T22:54:19;1.27;;;1.27;;
6249;SDS011;3158;52.148;11.568;2024-02-26T22:59:19;1.20;;;1.20;;
6249;SDS011;3158;52.148;11.568;2024-02-26T23:04:20;0.88;;;0.88;;
6249;SDS011;3158;52.148;11.568;2024-02-26T23:09:20;1.35;;;1.17;;
6249;SDS011;3158;52.148;11.568;2024-02-26T23:14:20;1.33;;;1.33;;
6249;SDS011;3158;52.148;11.568;2024-02-26T23:19:21;2.03;;;1.30;;
6249;SDS011;3158;52.148;11.568;2024-02-26T23:24:21;1.10;;;1.10;;
6249;SDS011;3158;52.148;11.568;2024-02-26T23:29:21;1.33;;;1.33;;
6249;SDS011;3158;52.148;11.568;2024-02-26T23:34:21;1.58;;;1.45;;
6249;SDS011;3158;52.148;11.568;2024-02-26T23:39:21;1.42;;;1.33;;
6249;SDS011;3158;52.148;11.568;2024-02-26T23:44:22;1.48;;;1.38;;
6249;SDS011;3158;52.148;11.568;2024-02-26T23:49:22;1.88;;;1.55;;
6249;SDS011;3158;52.148;11.568;2024-02-26T23:54:24;1.33;;;1.27;;
6249;SDS011;3158;52.148;11.568;2024-02-26T23:59:24;1.80;;;1.07;;
